Time;durP1;ratioP1;P1;durP2;ratioP2;P2;SDS_P1;SDS_P2;PMS_P1;PMS_P2;Temp;Humidity;BMP_temperature;BMP_pressure;BME280_temperature;BME280_humidity;BME280_pressure;Samples;Min_cycle;Max_cycle;Signal;HPM_P1;HPM_P2
2022/06/24 00:00:37;;;;;;;4.22;2.50;;;;;;;22.04;58.10;100756.91;4904147;29;20052;-76
2022/06/24 00:03:06;;;;;;;2.88;2.22;;;;;;;21.98;59.15;100751.78;4904194;29;20059;-79
2022/06/24 00:05:35;;;;;;;4.25;2.53;;;;;;;21.93;59.81;100754.69;4854718;29;20079;-76
2022/06/24 00:08:05;;;;;;;4.68;2.00;;;;;;;21.85;60.15;100755.97;4904607;29;20051;-77
2022/06/24 00:10:36;;;;;;;2.17;1.95;;;;;;;21.77;60.17;100749.16;4905768;29;20041;-77
2022/06/24 00:13:06;;;;;;;3.50;2.22;;;;;;;21.73;59.61;100752.03;4885243;29;20052;-79
2022/06/24 00:15:36;;;;;;;2.38;2.15;;;;;;;21.72;59.61;100745.81;4902177;29;20147;-78
2022/06/24 00:18:19;;;;;;;5.53;2.30;;;;;;;21.72;60.27;100748.50;4906047;29;20060;-78
2022/06/24 00:20:50;;;;;;;6.10;2.20;;;;;;;21.68;60.35;100749.59;4901299;29;20037;-78
2022/06/24 00:23:21;;;;;;;3.38;1.98;;;;;;;21.69;60.30;100750.44;4878284;29;20437;-77
2022/06/24 00:25:50;;;;;;;4.63;1.90;;;;;;;21.67;60.44;100737.09;4910368;29;20083;-78
2022/06/24 00:28:24;;;;;;;2.70;2.20;;;;;;;21.65;60.15;100741.66;4898446;29;20075;-78
2022/06/24 00:30:55;;;;;;;3.35;2.42;;;;;;;21.64;59.51;100741.72;4908539;29;20044;-78
2022/06/24 00:33:25;;;;;;;3.03;2.35;;;;;;;21.64;59.52;100739.03;4921621;28;20429;-78
2022/06/24 00:35:58;;;;;;;6.20;2.10;;;;;;;21.63;60.40;100737.31;4908544;29;20405;-78
2022/06/24 00:38:27;;;;;;;2.45;2.13;;;;;;;21.59;60.44;100739.25;4871012;29;20370;-78
2022/06/24 00:41:07;;;;;;;2.30;2.10;;;;;;;21.53;59.88;100732.38;4920045;29;20060;-78
2022/06/24 00:43:39;;;;;;;3.45;2.20;;;;;;;21.51;59.71;100736.94;4908932;29;20818;-76
2022/06/24 00:46:16;;;;;;;3.13;2.10;;;;;;;21.48;60.03;100737.06;4895887;29;20055;-79
2022/06/24 00:48:51;;;;;;;2.60;1.90;;;;;;;21.48;60.02;100730.81;4907066;29;20051;-76
2022/06/24 00:51:22;;;;;;;2.67;2.40;;;;;;;21.45;60.36;100726.44;4905840;29;20048;-76
2022/06/24 00:53:55;;;;;;;3.40;2.00;;;;;;;21.41;61.04;100719.44;4888520;29;20036;-79
2022/06/24 00:56:27;;;;;;;3.25;2.55;;;;;;;21.35;61.45;100714.38;4918634;29;20281;-76
2022/06/24 00:58:58;;;;;;;6.25;2.85;;;;;;;21.26;61.02;100706.72;4889948;29;20044;-77
2022/06/24 01:01:30;;;;;;;4.95;3.35;;;;;;;21.22;61.22;100697.94;4903955;29;20169;-77
2022/06/24 01:04:00;;;;;;;4.93;3.97;;;;;;;21.19;61.54;100690.03;4906668;29;20047;-76
2022/06/24 01:06:29;;;;;;;5.72;3.75;;;;;;;21.16;61.36;100693.72;4888847;29;20514;-75
2022/06/24 01:08:58;;;;;;;3.10;2.83;;;;;;;21.14;61.78;100686.69;4890318;29;20044;-76
2022/06/24 01:11:30;;;;;;;3.35;2.65;;;;;;;21.10;62.46;100682.41;4870441;29;20262;-76
2022/06/24 01:13:59;;;;;;;4.93;2.60;;;;;;;21.08;62.25;100673.56;4904960;29;20063;-79
2022/06/24 01:16:28;;;;;;;6.20;2.13;;;;;;;21.05;62.73;100671.88;4896989;29;20556;-76
2022/06/24 01:18:59;;;;;;;6.18;2.30;;;;;;;21.02;63.10;100672.03;4904333;29;20056;-76
2022/06/24 01:21:38;;;;;;;6.63;2.55;;;;;;;21.00;63.76;100668.53;4903514;29;20166;-78
2022/06/24 01:24:11;;;;;;;3.00;2.30;;;;;;;20.96;63.83;100665.13;4895035;29;20051;-78
2022/06/24 01:26:42;;;;;;;3.63;2.30;;;;;;;20.94;63.86;100672.34;4872511;29;20044;-78
2022/06/24 01:29:19;;;;;;;4.05;2.20;;;;;;;20.90;64.81;100656.47;4901154;29;20063;-78
2022/06/24 01:31:49;;;;;;;4.22;2.10;;;;;;;20.84;64.56;100652.25;4919301;29;20062;-77
2022/06/24 01:34:20;;;;;;;4.38;2.42;;;;;;;20.80;65.23;100646.16;4903451;29;20071;-77
2022/06/24 01:36:48;;;;;;;2.42;2.25;;;;;;;20.76;65.40;100649.91;4903009;29;20048;-77
2022/06/24 01:39:17;;;;;;;6.03;2.50;;;;;;;20.73;66.02;100652.69;4904814;29;20255;-77
2022/06/24 01:41:46;;;;;;;3.47;2.28;;;;;;;20.68;66.96;100644.00;4874735;29;20040;-77
2022/06/24 01:44:14;;;;;;;5.18;2.53;;;;;;;20.67;66.58;100638.72;4889497;29;20380;-77
2022/06/24 01:46:43;;;;;;;4.65;2.70;;;;;;;20.64;67.43;100635.25;4904855;29;20051;-77
2022/06/24 01:49:11;;;;;;;2.53;2.33;;;;;;;20.62;67.53;100630.88;4887925;29;20087;-78
2022/06/24 01:51:43;;;;;;;5.75;2.70;;;;;;;20.60;68.73;100622.91;4908415;29;20047;-77
2022/06/24 01:54:12;;;;;;;2.80;2.55;;;;;;;20.60;69.01;100619.34;4904999;29;20247;-78
2022/06/24 01:56:40;;;;;;;2.67;2.47;;;;;;;20.59;69.43;100615.78;4907925;29;20055;-77
2022/06/24 01:59:14;;;;;;;5.32;2.45;;;;;;;20.59;69.96;100607.75;4852580;29;20518;-78
2022/06/24 02:01:43;;;;;;;4.10;2.83;;;;;;;20.59;70.89;100612.25;4898810;29;20053;-77
2022/06/24 02:04:13;;;;;;;8.68;2.92;;;;;;;20.59;71.66;100598.84;4903676;29;20261;-78
2022/06/24 02:06:41;;;;;;;12.50;3.00;;;;;;;20.57;71.57;100592.69;4892118;29;20052;-77
2022/06/24 02:09:10;;;;;;;4.07;2.58;;;;;;;20.57;72.22;100592.69;4900854;29;20055;-78
2022/06/24 02:14:27;;;;;;;5.55;2.90;;;;;;;20.54;73.32;100582.97;4873472;29;20276;-77
2022/06/24 02:16:56;;;;;;;9.57;3.08;;;;;;;20.53;73.43;100591.06;4887223;29;20066;-77
2022/06/24 02:19:24;;;;;;;3.72;3.05;;;;;;;20.53;73.12;100585.72;4891743;29;20047;-78
2022/06/24 02:21:52;;;;;;;4.95;2.75;;;;;;;20.52;72.77;100582.16;4910195;29;20546;-78
2022/06/24 02:24:21;;;;;;;5.13;2.78;;;;;;;20.50;72.35;100584.03;4913431;29;20706;-78
2022/06/24 02:26:49;;;;;;;4.43;2.60;;;;;;;20.48;72.17;100577.88;4910652;29;20052;-77
2022/06/24 02:29:17;;;;;;;3.58;2.80;;;;;;;20.46;71.53;100574.41;4837044;29;20083;-77
2022/06/24 02:31:46;;;;;;;6.40;3.03;;;;;;;20.44;72.19;100574.47;4901707;29;20044;-77
2022/06/24 02:34:14;;;;;;;5.43;2.55;;;;;;;20.44;71.41;100578.97;4905847;29;20134;-77
2022/06/24 02:36:42;;;;;;;4.93;2.45;;;;;;;20.44;71.48;100568.25;4894074;29;20051;-77
2022/06/24 02:39:11;;;;;;;4.10;2.70;;;;;;;20.42;71.44;100565.63;4905717;29;20545;-77
2022/06/24 02:41:39;;;;;;;3.03;2.75;;;;;;;20.40;71.40;100570.19;4910555;29;20040;-77
2022/06/24 02:44:08;;;;;;;6.28;2.85;;;;;;;20.38;71.24;100561.34;4872967;29;20060;-78
2022/06/24 02:46:36;;;;;;;5.05;2.60;;;;;;;20.36;70.96;100563.22;4909200;29;20055;-77
2022/06/24 02:49:04;;;;;;;2.85;2.63;;;;;;;20.36;70.91;100565.91;4885131;29;20051;-78
2022/06/24 02:51:33;;;;;;;5.43;2.80;;;;;;;20.36;70.62;100568.56;4878882;29;20387;-77
2022/06/24 02:54:01;;;;;;;3.45;2.85;;;;;;;20.37;70.90;100550.72;4892832;29;20465;-77
2022/06/24 02:56:29;;;;;;;9.23;3.47;;;;;;;20.36;70.71;100556.97;4910208;29;20688;-77
2022/06/24 02:58:58;;;;;;;6.18;2.47;;;;;;;20.36;71.30;100555.19;4901515;29;20056;-77
2022/06/24 03:01:26;;;;;;;4.28;2.92;;;;;;;20.32;71.33;100553.59;4891473;29;20268;-77
2022/06/24 03:03:55;;;;;;;4.53;2.97;;;;;;;20.30;70.87;100555.44;4903315;29;20044;-78
2022/06/24 03:06:23;;;;;;;7.30;3.00;;;;;;;20.29;71.10;100553.72;4906622;29;20078;-77
2022/06/24 03:08:52;;;;;;;4.65;2.97;;;;;;;20.29;70.97;100542.16;4893269;29;20406;-78
2022/06/24 03:11:20;;;;;;;5.03;2.65;;;;;;;20.31;70.94;100550.97;4872278;29;20258;-77
2022/06/24 03:13:49;;;;;;;4.60;3.00;;;;;;;20.29;71.37;100534.13;4890336;29;20049;-77
2022/06/24 03:16:17;;;;;;;3.42;2.88;;;;;;;20.26;72.00;100535.09;4874457;29;20052;-78
2022/06/24 03:18:45;;;;;;;6.90;3.33;;;;;;;20.22;71.59;100539.69;4889010;29;20059;-77
2022/06/24 03:21:14;;;;;;;3.53;3.22;;;;;;;20.20;71.82;100532.69;4889601;29;20541;-78
2022/06/24 03:23:43;;;;;;;3.35;2.97;;;;;;;20.19;72.26;100523.78;4909871;29;20385;-78
2022/06/24 03:26:11;;;;;;;4.18;2.85;;;;;;;20.17;71.93;100525.66;4907607;29;20056;-79
2022/06/24 03:28:39;;;;;;;3.47;3.15;;;;;;;20.14;71.89;100525.78;4892900;29;20067;-78
2022/06/24 03:31:12;;;;;;;3.92;3.20;;;;;;;20.14;72.11;100520.44;4872508;29;20159;-78
2022/06/24 03:33:40;;;;;;;4.43;3.05;;;;;;;20.11;71.87;100515.19;4903757;29;20044;-78
2022/06/24 03:36:10;;;;;;;4.05;3.08;;;;;;;20.11;71.62;100509.84;4906843;29;20062;-78
2022/06/24 03:38:39;;;;;;;4.93;2.85;;;;;;;20.11;72.02;100509.84;4910921;29;20048;-78
2022/06/24 03:41:13;;;;;;;4.20;3.17;;;;;;;20.10;72.09;100508.13;4905447;29;20064;-77
2022/06/24 03:43:42;;;;;;;5.72;2.92;;;;;;;20.08;72.13;100501.97;4909002;29;20040;-78
2022/06/24 03:46:10;;;;;;;3.78;3.47;;;;;;;20.08;72.02;100493.94;4840943;29;20213;-78
2022/06/24 03:48:38;;;;;;;7.93;3.13;;;;;;;20.09;72.32;100503.69;4903825;29;20049;-77
2022/06/24 03:51:07;;;;;;;6.00;3.40;;;;;;;20.11;72.32;100511.66;4919452;29;20059;-78
2022/06/24 03:53:35;;;;;;;4.65;3.00;;;;;;;20.14;72.49;100512.41;4875755;29;20051;-78
2022/06/24 03:56:04;;;;;;;3.65;2.95;;;;;;;20.18;72.53;100513.16;4889990;29;20036;-78
2022/06/24 03:58:32;;;;;;;4.40;3.10;;;;;;;20.21;72.18;100507.69;4874469;29;20041;-78
2022/06/24 04:01:01;;;;;;;4.15;3.75;;;;;;;20.24;72.04;100513.78;4875636;29;20060;-79
2022/06/24 04:03:30;;;;;;;6.38;3.95;;;;;;;20.25;71.54;100517.31;4881620;29;20052;-78
2022/06/24 04:05:59;;;;;;;5.57;3.92;;;;;;;20.27;71.97;100515.44;4884160;29;20044;-78
2022/06/24 04:08:27;;;;;;;7.68;3.17;;;;;;;20.26;71.72;100519.03;4906139;29;20060;-77
2022/06/24 04:10:55;;;;;;;5.95;3.20;;;;;;;20.27;71.42;100515.44;4906385;29;20059;-77
2022/06/24 04:13:24;;;;;;;6.40;3.28;;;;;;;20.29;71.87;100510.03;4888721;29;20239;-77
2022/06/24 04:15:52;;;;;;;5.45;3.67;;;;;;;20.28;71.98;100509.16;4860499;29;20028;-77
2022/06/24 04:18:21;;;;;;;6.47;2.92;;;;;;;20.23;71.50;100506.69;4888533;29;20043;-77
2022/06/24 04:20:49;;;;;;;5.00;3.00;;;;;;;20.21;71.95;100499.66;4900294;29;20056;-78
2022/06/24 04:23:18;;;;;;;4.95;3.28;;;;;;;20.18;72.15;100494.44;4905886;29;20580;-77
2022/06/24 04:25:47;;;;;;;4.47;3.17;;;;;;;20.16;71.83;100499.84;4908836;29;20040;-77
2022/06/24 04:28:16;;;;;;;6.00;3.63;;;;;;;20.15;71.98;100495.44;4887489;29;20342;-78
2022/06/24 04:30:45;;;;;;;4.35;3.00;;;;;;;20.16;71.90;100488.28;4871757;29;20064;-77
2022/06/24 04:33:13;;;;;;;3.65;3.33;;;;;;;20.17;71.92;100488.22;4904784;29;20318;-77
2022/06/24 04:35:42;;;;;;;3.53;3.22;;;;;;;20.20;71.82;100488.06;4887282;29;20043;-77
2022/06/24 04:38:10;;;;;;;6.50;3.33;;;;;;;20.28;71.81;100494.91;4873817;29;20048;-78
2022/06/24 04:40:39;;;;;;;3.58;3.00;;;;;;;20.32;72.00;100491.16;4879288;29;20505;-77
2022/06/24 04:43:10;;;;;;;5.05;3.50;;;;;;;20.35;71.83;100491.03;4858935;29;20055;-77
2022/06/24 04:45:39;;;;;;;5.20;2.80;;;;;;;20.37;71.83;100508.75;4908480;29;20063;-77
2022/06/24 04:48:08;;;;;;;8.55;3.60;;;;;;;20.40;71.49;100522.00;4856475;29;20040;-78
2022/06/24 04:50:36;;;;;;;5.63;2.80;;;;;;;20.46;71.76;100518.22;4872146;29;20491;-77
2022/06/24 04:53:14;;;;;;;7.20;3.97;;;;;;;20.51;71.34;100507.28;4906547;29;20083;-78
2022/06/24 04:55:42;;;;;;;3.22;2.92;;;;;;;20.53;70.97;100503.63;4909406;29;20032;-77
2022/06/24 04:58:11;;;;;;;8.27;3.42;;;;;;;20.59;71.29;100497.13;4903630;29;20171;-77
2022/06/24 05:00:39;;;;;;;4.25;3.40;;;;;;;20.62;71.27;100505.03;4876683;29;20036;-77
2022/06/24 05:03:09;;;;;;;3.35;3.05;;;;;;;20.67;71.70;100497.69;4869247;29;20055;-78
2022/06/24 05:05:38;;;;;;;4.88;4.45;;;;;;;20.82;72.45;100497.00;4894322;29;20490;-77
2022/06/24 05:08:07;;;;;;;6.63;3.50;;;;;;;21.07;71.44;100489.66;4899829;29;20062;-77
2022/06/24 05:10:35;;;;;;;7.10;4.43;;;;;;;21.34;70.91;100487.50;4908506;29;20062;-77
2022/06/24 05:13:03;;;;;;;4.65;3.67;;;;;;;21.41;70.50;100487.13;4873655;29;20052;-79
2022/06/24 05:15:32;;;;;;;4.80;3.80;;;;;;;21.59;70.02;100479.19;4889404;29;20063;-75
2022/06/24 05:18:00;;;;;;;9.45;3.45;;;;;;;21.70;70.75;100465.25;4869381;29;20370;-76
2022/06/24 05:20:29;;;;;;;6.85;3.72;;;;;;;22.06;71.15;100446.47;4903728;29;20435;-76
2022/06/24 05:22:58;;;;;;;4.22;3.78;;;;;;;22.34;68.75;100454.00;4898669;29;20402;-76
2022/06/24 05:25:26;;;;;;;4.13;3.33;;;;;;;22.62;68.66;100455.19;4887513;29;20059;-77
2022/06/24 05:27:55;;;;;;;7.30;2.83;;;;;;;23.06;68.91;100451.97;4905161;29;20051;-77
2022/06/24 05:30:24;;;;;;;8.65;3.30;;;;;;;23.07;68.06;100451.00;4902791;29;20162;-76
2022/06/24 05:32:52;;;;;;;3.60;3.33;;;;;;;22.96;67.66;100456.94;4871259;29;20051;-76
2022/06/24 05:35:23;;;;;;;3.10;2.83;;;;;;;22.75;67.21;100450.03;4880551;29;20686;-78
2022/06/24 05:37:51;;;;;;;8.23;2.95;;;;;;;22.54;67.31;100454.75;4864869;29;20390;-78
2022/06/24 05:40:20;;;;;;;7.97;3.33;;;;;;;22.32;67.94;100455.84;4883780;29;20271;-78
2022/06/24 05:42:48;;;;;;;7.65;2.90;;;;;;;22.12;68.14;100459.56;4906299;29;20048;-76
2022/06/24 05:45:16;;;;;;;7.97;3.22;;;;;;;21.95;68.86;100440.78;4871974;29;20647;-77
2022/06/24 05:47:45;;;;;;;6.75;3.53;;;;;;;21.80;68.81;100437.91;4893442;29;20044;-76
2022/06/24 05:50:13;;;;;;;6.10;3.28;;;;;;;21.66;68.98;100445.75;4833647;29;20079;-77
2022/06/24 05:55:28;;;;;;;5.88;3.38;;;;;;;21.27;69.88;100430.66;4902469;29;20045;-77
2022/06/24 05:57:56;;;;;;;7.00;3.38;;;;;;;21.11;70.86;100433.19;4892250;29;20044;-77
2022/06/24 06:00:25;;;;;;;5.43;3.83;;;;;;;21.01;71.84;100438.09;4891504;29;20629;-77
2022/06/24 06:02:54;;;;;;;6.15;3.67;;;;;;;20.98;72.94;100448.09;4908991;29;20059;-78
2022/06/24 06:05:23;;;;;;;6.55;3.45;;;;;;;20.95;73.14;100449.09;4870803;29;20171;-77
2022/06/24 06:07:52;;;;;;;4.85;3.42;;;;;;;20.90;73.41;100451.13;4893835;29;20043;-79
2022/06/24 06:10:21;;;;;;;7.93;4.05;;;;;;;20.90;74.06;100456.47;4884039;29;20569;-78
2022/06/24 06:12:49;;;;;;;4.90;3.53;;;;;;;20.85;74.60;100466.56;4908280;29;20113;-78
2022/06/24 06:15:17;;;;;;;9.48;3.85;;;;;;;20.79;75.32;100517.69;4906976;29;20052;-78
2022/06/24 06:17:46;;;;;;;7.97;4.15;;;;;;;20.70;75.71;100611.78;4910827;29;20048;-77
2022/06/24 06:20:15;;;;;;;6.50;4.40;;;;;;;20.60;76.12;100622.91;4855036;29;20498;-79
2022/06/24 06:22:43;;;;;;;9.60;4.07;;;;;;;20.49;76.31;100600.16;4908508;29;20055;-78
2022/06/24 06:25:14;;;;;;;6.03;4.32;;;;;;;20.36;77.44;100605.16;4883848;29;20625;-78
2022/06/24 06:27:44;;;;;;;14.85;5.57;;;;;;;20.20;81.38;100603.09;4893731;29;20504;-78
2022/06/24 06:30:13;;;;;;;17.88;5.95;;;;;;;19.98;86.93;100607.56;4890041;29;20260;-78
2022/06/24 06:32:41;;;;;;;10.75;6.75;;;;;;;19.62;90.73;100598.25;4908992;29;20051;-76
2022/06/24 06:35:10;;;;;;;13.43;6.57;;;;;;;19.27;93.75;100578.19;4858581;29;20052;-78
2022/06/24 06:37:38;;;;;;;15.10;7.65;;;;;;;18.95;97.20;100556.19;4907639;29;20059;-78
2022/06/24 06:40:07;;;;;;;12.25;7.88;;;;;;;18.68;100.00;100542.88;4901929;29;20051;-78
2022/06/24 06:42:38;;;;;;;12.20;7.20;;;;;;;18.48;100.00;100558.72;4893712;29;20044;-78
2022/06/24 06:45:07;;;;;;;10.73;8.90;;;;;;;18.36;100.00;100557.34;4890746;29;20071;-78
2022/06/24 06:47:35;;;;;;;16.48;9.77;;;;;;;18.25;100.00;100552.34;4909031;29;20070;-78
2022/06/24 06:50:05;;;;;;;13.82;8.77;;;;;;;18.16;100.00;100544.66;4883923;29;20051;-78
2022/06/24 06:52:40;;;;;;;10.60;9.23;;;;;;;18.08;100.00;100534.25;4922738;29;20036;-78
2022/06/24 06:55:08;;;;;;;16.08;9.30;;;;;;;18.05;100.00;100514.81;4873031;29;20060;-78
2022/06/24 06:57:37;;;;;;;15.45;10.25;;;;;;;18.01;100.00;100524.69;4909890;29;20051;-78
2022/06/24 07:00:09;;;;;;;14.10;10.82;;;;;;;18.03;100.00;100522.84;4907170;29;20063;-79
2022/06/24 07:02:37;;;;;;;13.52;10.90;;;;;;;18.05;100.00;100497.03;4922024;29;20036;-78
2022/06/24 07:05:14;;;;;;;11.80;10.45;;;;;;;18.04;100.00;100495.28;4902878;29;20624;-78
2022/06/24 07:07:42;;;;;;;11.32;10.18;;;;;;;18.07;100.00;100480.97;4856345;29;20040;-78
2022/06/24 07:10:11;;;;;;;17.40;10.32;;;;;;;18.09;100.00;100468.44;4874662;29;20364;-78
2022/06/24 07:12:39;;;;;;;14.18;11.55;;;;;;;18.10;100.00;100479.06;4906632;29;20143;-78
2022/06/24 07:15:08;;;;;;;16.20;11.43;;;;;;;18.10;100.00;100488.88;4906645;29;20391;-79
2022/06/24 07:17:36;;;;;;;13.40;11.32;;;;;;;18.07;100.00;100484.53;4894928;29;20036;-78
2022/06/24 07:20:05;;;;;;;14.00;12.30;;;;;;;18.06;100.00;100492.56;4892126;29;20067;-78
2022/06/24 07:22:34;;;;;;;15.05;12.88;;;;;;;18.07;100.00;100494.31;4860072;29;20057;-78
2022/06/24 07:25:02;;;;;;;14.50;13.05;;;;;;;18.10;100.00;100499.53;4906644;29;20367;-78
2022/06/24 07:27:31;;;;;;;14.73;13.13;;;;;;;18.13;100.00;100491.44;4903962;29;20398;-78
2022/06/24 07:30:03;;;;;;;15.02;13.52;;;;;;;18.18;100.00;100499.28;4907295;29;20047;-78
2022/06/24 07:32:31;;;;;;;15.23;13.35;;;;;;;18.24;100.00;100507.97;4910870;29;20082;-78
2022/06/24 07:35:00;;;;;;;15.45;13.75;;;;;;;18.34;100.00;100512.97;4920449;29;20079;-78
2022/06/24 07:37:29;;;;;;;14.10;12.55;;;;;;;18.45;100.00;100513.44;4876455;29;20032;-77
2022/06/24 07:39:57;;;;;;;14.70;13.30;;;;;;;18.56;100.00;100508.59;4909386;29;20040;-78
2022/06/24 07:42:25;;;;;;;13.93;12.57;;;;;;;18.65;100.00;100510.09;4902501;29;20258;-77
2022/06/24 07:44:54;;;;;;;15.27;13.63;;;;;;;18.72;100.00;100514.28;4911860;29;20048;-77
2022/06/24 07:47:23;;;;;;;16.50;13.82;;;;;;;18.80;100.00;100519.34;4911721;29;20048;-78
2022/06/24 07:49:51;;;;;;;15.15;13.52;;;;;;;18.89;100.00;100514.59;4912396;29;20125;-78
2022/06/24 07:52:20;;;;;;;15.00;11.50;;;;;;;18.98;100.00;100521.41;4858926;29;20553;-77
2022/06/24 07:56:56;;;;;;;13.55;11.90;;;;;;;19.11;100.00;100536.94;4906250;29;20048;-78
2022/06/24 07:57:36;;;;;;;14.52;12.20;;;;;;;19.14;100.00;100531.50;4902876;29;20052;-77
2022/06/24 08:00:07;;;;;;;13.90;12.48;;;;;;;19.16;100.00;100545.66;4905165;29;20052;-77
2022/06/24 08:02:40;;;;;;;15.48;10.93;;;;;;;19.16;100.00;100551.00;4894416;29;20390;-77
2022/06/24 08:05:09;;;;;;;14.45;11.18;;;;;;;19.19;100.00;100553.56;4907862;29;20391;-78
2022/06/24 08:07:37;;;;;;;15.43;11.48;;;;;;;19.27;100.00;100528.31;4878078;29;20052;-77
2022/06/24 08:10:09;;;;;;;17.88;12.00;;;;;;;19.31;100.00;100513.03;4904796;29;20088;-77
2022/06/24 08:12:37;;;;;;;15.48;10.60;;;;;;;19.37;100.00;100507.44;4916520;29;20052;-77
2022/06/24 08:15:06;;;;;;;17.85;11.25;;;;;;;19.46;100.00;100514.25;4854514;29;20542;-77
2022/06/24 08:17:34;;;;;;;16.52;9.70;;;;;;;19.59;100.00;100512.81;4872318;29;20037;-77
2022/06/24 08:20:03;;;;;;;18.10;11.77;;;;;;;19.79;100.00;100520.09;4871545;29;20060;-77
2022/06/24 08:22:32;;;;;;;10.68;8.95;;;;;;;20.03;100.00;100514.66;4823918;29;20080;-77
2022/06/24 08:25:02;;;;;;;12.40;8.15;;;;;;;20.20;100.00;100500.59;4868159;29;20467;-77
2022/06/24 08:27:51;;;;;;;12.43;8.00;;;;;;;20.40;100.00;100491.72;4852706;29;20052;-76
2022/06/24 08:30:20;;;;;;;9.25;6.18;;;;;;;20.48;100.00;100496.72;4866794;29;20254;-77
2022/06/24 08:32:48;;;;;;;7.63;5.53;;;;;;;20.54;100.00;100485.75;4874701;29;20056;-78
2022/06/24 08:35:17;;;;;;;7.40;4.72;;;;;;;20.57;100.00;100478.47;4866573;29;20282;-77
2022/06/24 08:37:58;;;;;;;7.90;4.32;;;;;;;20.53;100.00;100484.88;4874935;29;20043;-79
2022/06/24 08:40:28;;;;;;;6.85;4.63;;;;;;;20.47;100.00;100493.16;4854874;29;20059;-78
2022/06/24 08:42:59;;;;;;;7.30;4.68;;;;;;;20.41;100.00;100485.41;4890928;29;20068;-76
2022/06/24 08:45:28;;;;;;;8.10;4.18;;;;;;;20.36;100.00;100484.72;4863008;29;20560;-77
2022/06/24 08:47:57;;;;;;;7.03;3.42;;;;;;;20.36;100.00;100479.38;4865276;29;20057;-76
2022/06/24 08:50:25;;;;;;;5.65;4.07;;;;;;;20.39;100.00;100484.63;4850530;29;20258;-77
2022/06/24 08:52:55;;;;;;;7.38;3.38;;;;;;;20.41;100.00;100488.09;4862685;29;20049;-77
2022/06/24 08:55:25;;;;;;;7.50;3.13;;;;;;;20.41;100.00;100501.47;4861697;29;20180;-76
2022/06/24 08:57:53;;;;;;;7.03;3.08;;;;;;;20.41;100.00;100507.69;4867988;29;20033;-77
2022/06/24 09:00:22;;;;;;;6.97;3.40;;;;;;;20.47;100.00;100508.34;4875837;29;20264;-77
2022/06/24 09:02:51;;;;;;;4.65;2.55;;;;;;;20.47;100.00;100495.84;4863103;29;20040;-76
2022/06/24 09:05:19;;;;;;;5.38;3.03;;;;;;;20.52;100.00;100493.84;4878040;29;20080;-77
2022/06/24 09:07:47;;;;;;;7.53;3.17;;;;;;;20.57;100.00;100486.50;4864020;29;20057;-77
2022/06/24 09:10:16;;;;;;;3.97;2.67;;;;;;;20.64;100.00;100488.00;4831584;29;20431;-76
2022/06/24 09:12:50;;;;;;;5.53;2.90;;;;;;;20.65;100.00;100480.81;4848554;29;20056;-77
2022/06/24 09:15:19;;;;;;;4.90;3.10;;;;;;;20.64;100.00;100505.84;4893474;29;20277;-77
2022/06/24 09:17:47;;;;;;;7.38;3.08;;;;;;;20.57;100.00;100510.59;4884146;29;20402;-77
2022/06/24 09:20:18;;;;;;;6.18;2.67;;;;;;;20.55;100.00;100512.47;4882889;29;20262;-76
2022/06/24 09:23:09;;;;;;;4.03;2.63;;;;;;;20.49;100.00;100519.88;4902567;29;20040;-77
2022/06/24 09:25:42;;;;;;;6.18;3.00;;;;;;;20.40;100.00;100518.47;4884940;29;20052;-76
2022/06/24 09:28:18;;;;;;;4.95;3.05;;;;;;;20.33;100.00;100530.38;4899821;29;20040;-77
2022/06/24 09:30:47;;;;;;;7.35;3.17;;;;;;;20.22;100.00;100542.38;4905230;29;20064;-77
2022/06/24 09:33:18;;;;;;;4.75;2.90;;;;;;;20.14;100.00;100547.19;4896476;29;20044;-77
2022/06/24 09:36:08;;;;;;;4.68;3.50;;;;;;;20.06;100.00;100554.66;4910124;29;20545;-77
2022/06/24 09:39:03;;;;;;;6.97;3.13;;;;;;;20.02;100.00;100561.94;4920328;29;20536;-76
2022/06/24 09:41:48;;;;;;;7.40;3.85;;;;;;;20.00;100.00;100571.84;4876983;29;20036;-77
2022/06/24 09:44:18;;;;;;;6.72;3.40;;;;;;;19.96;100.00;100569.31;4913791;29;20671;-77
2022/06/24 09:46:48;;;;;;;5.70;3.78;;;;;;;19.93;100.00;100578.34;4895103;29;20052;-77
2022/06/24 09:49:20;;;;;;;8.18;3.67;;;;;;;19.92;100.00;100586.44;4900535;29;20619;-77
2022/06/24 09:51:49;;;;;;;7.28;4.07;;;;;;;19.91;100.00;100587.38;4896146;29;20040;-77
2022/06/24 09:54:18;;;;;;;6.43;3.72;;;;;;;19.89;100.00;100595.47;4904310;29;20238;-77
2022/06/24 09:56:47;;;;;;;5.57;4.10;;;;;;;19.90;100.00;100601.66;4872231;29;20497;-77
2022/06/24 10:02:16;;;;;;;5.55;4.22;;;;;;;19.96;100.00;100596.97;4898477;29;20044;-78
2022/06/24 10:04:51;;;;;;;7.88;4.20;;;;;;;20.00;100.00;100595.00;4907096;29;20040;-77
2022/06/24 10:07:25;;;;;;;3.78;3.40;;;;;;;20.01;100.00;100589.59;4906071;29;20085;-77
2022/06/24 10:10:03;;;;;;;8.73;3.92;;;;;;;20.02;100.00;100583.34;4887240;29;20052;-77
2022/06/24 10:12:41;;;;;;;4.65;3.47;;;;;;;20.04;100.00;100575.25;4897152;29;20040;-77
2022/06/24 10:15:10;;;;;;;5.78;3.92;;;;;;;20.05;100.00;100577.84;4883843;29;20517;-77
2022/06/24 10:17:39;;;;;;;8.63;3.97;;;;;;;20.07;100.00;100567.09;4920903;29;20442;-77
2022/06/24 10:20:11;;;;;;;5.27;3.33;;;;;;;20.10;100.00;100564.31;4903749;29;20044;-77
2022/06/24 10:22:45;;;;;;;5.13;3.47;;;;;;;20.14;100.00;100568.59;4907714;29;20060;-77
2022/06/24 10:25:49;;;;;;;6.28;3.88;;;;;;;20.17;100.00;100563.13;4904452;29;20282;-77
2022/06/24 10:28:18;;;;;;;5.00;4.43;;;;;;;20.21;100.00;100570.09;4870445;29;20281;-77
2022/06/24 10:30:46;;;;;;;4.10;3.75;;;;;;;20.27;100.00;100576.97;4906413;29;20056;-77
2022/06/24 10:33:21;;;;;;;5.63;4.30;;;;;;;20.32;100.00;100576.78;4903583;29;20060;-77
2022/06/24 10:36:00;;;;;;;4.20;3.85;;;;;;;20.34;100.00;100585.59;4901256;29;20067;-77
2022/06/24 10:38:36;;;;;;;4.85;3.60;;;;;;;20.34;100.00;100580.25;4893671;29;20052;-77
2022/06/24 10:41:06;;;;;;;4.28;3.80;;;;;;;20.34;100.00;100582.94;4892871;29;20067;-77
2022/06/24 10:43:37;;;;;;;5.50;3.55;;;;;;;20.32;100.00;100580.34;4862529;29;20482;-77
2022/06/24 10:46:23;;;;;;;4.60;3.92;;;;;;;20.32;100.00;100582.13;4906616;29;20384;-77
2022/06/24 10:48:52;;;;;;;4.75;4.15;;;;;;;20.31;100.00;100591.97;4910166;29;20165;-77
2022/06/24 10:51:22;;;;;;;4.32;3.95;;;;;;;20.25;100.00;100597.59;4882096;29;20071;-77
2022/06/24 10:54:02;;;;;;;8.70;4.60;;;;;;;20.20;100.00;100600.44;4911256;29;20063;-77
2022/06/24 10:56:43;;;;;;;4.35;3.97;;;;;;;20.16;100.00;100609.50;4913712;29;20040;-77
2022/06/24 10:59:14;;;;;;;6.72;5.20;;;;;;;20.11;100.00;100616.84;4874949;28;20060;-77
2022/06/24 11:01:45;;;;;;;6.75;4.53;;;;;;;20.10;100.00;100608.91;4908090;29;20044;-76
2022/06/24 11:04:21;;;;;;;8.63;5.30;;;;;;;20.09;100.00;100612.50;4897676;29;20426;-77
2022/06/24 11:07:07;;;;;;;8.93;5.68;;;;;;;20.04;100.00;100604.69;4908119;29;20059;-77
2022/06/24 11:09:36;;;;;;;5.88;4.70;;;;;;;19.99;100.00;100617.34;4907645;29;20044;-77
2022/06/24 11:12:27;;;;;;;9.55;6.35;;;;;;;19.86;100.00;100620.50;4888241;29;20055;-77
2022/06/24 11:14:57;;;;;;;12.20;7.40;;;;;;;19.79;100.00;100615.44;4857530;29;20059;-77
2022/06/24 11:17:26;;;;;;;7.97;3.72;;;;;;;19.73;100.00;100600.50;4906642;29;20178;-76
2022/06/24 11:19:54;;;;;;;9.45;4.35;;;;;;;19.67;100.00;100603.41;4894609;29;20394;-78
2022/06/24 11:22:29;;;;;;;10.05;4.68;;;;;;;19.57;100.00;100621.59;4903782;29;20284;-78
2022/06/24 11:25:04;;;;;;;9.57;4.03;;;;;;;19.44;100.00;100623.84;4906241;29;20083;-77
2022/06/24 11:27:37;;;;;;;7.10;4.00;;;;;;;19.34;100.00;100627.81;4896070;29;20047;-78
2022/06/24 11:30:08;;;;;;;10.57;4.20;;;;;;;19.28;100.00;100633.34;4877517;29;20051;-78
2022/06/24 11:32:58;;;;;;;9.77;4.43;;;;;;;19.23;100.00;100632.66;4909951;29;20044;-77
2022/06/24 11:35:28;;;;;;;7.18;4.30;;;;;;;19.21;100.00;100634.53;4903154;29;20174;-77
2022/06/24 11:37:57;;;;;;;4.20;3.72;;;;;;;19.19;100.00;100639.91;4909607;29;20510;-78
2022/06/24 11:40:28;;;;;;;4.63;3.60;;;;;;;19.19;100.00;100647.06;4908122;29;20036;-78
2022/06/24 11:43:02;;;;;;;6.30;3.45;;;;;;;19.17;100.00;100646.22;4900507;29;20406;-78